Time;durP1;ratioP1;P1;durP2;ratioP2;P2;SDS_P1;SDS_P2;PMS_P1;PMS_P2;Temp;Humidity;BMP_temperature;BMP_pressure;BME280_temperature;BME280_humidity;BME280_pressure;Samples;Min_cycle;Max_cycle;Signal;HPM_P1;HPM_P2
2022/11/19 00:01:06;;;;;;;0.60;0.60;;;;;;;12.09;100.00;98310.50;5056559;28;20196;-77
2022/11/19 00:03:34;;;;;;;0.97;0.93;;;;;;;12.03;100.00;98308.28;5063785;28;20254;-77
2022/11/19 00:06:06;;;;;;;0.50;0.50;;;;;;;12.00;100.00;98328.97;5050622;28;20255;-77
2022/11/19 00:08:33;;;;;;;0.50;0.50;;;;;;;11.94;100.00;98314.75;5050860;28;20588;-77
2022/11/19 00:11:05;;;;;;;0.57;0.57;;;;;;;11.89;100.00;98310.75;5050584;28;20192;-77
2022/11/19 00:13:33;;;;;;;1.90;0.80;;;;;;;11.84;100.00;98302.47;5053880;28;20193;-77
2022/11/19 00:16:04;;;;;;;0.47;0.47;;;;;;;11.83;100.00;98299.06;5046217;28;20211;-77
2022/11/19 00:18:31;;;;;;;0.50;0.50;;;;;;;11.81;100.00;98298.31;5060093;28;20211;-77
2022/11/19 00:21:04;;;;;;;0.40;0.40;;;;;;;11.79;100.00;98309.59;5055547;28;20197;-78
2022/11/19 00:23:31;;;;;;;0.50;0.50;;;;;;;11.73;100.00;98308.13;5052991;28;20205;-77
2022/11/19 00:26:03;;;;;;;0.60;0.60;;;;;;;11.71;100.00;98322.81;5059130;28;20212;-77
2022/11/19 00:28:30;;;;;;;0.43;0.43;;;;;;;11.62;100.00;98314.72;5070562;28;20626;-77
2022/11/19 00:31:03;;;;;;;0.50;0.50;;;;;;;11.59;100.00;98326.81;5070456;28;20204;-78
2022/11/19 00:33:30;;;;;;;0.80;0.80;;;;;;;11.63;100.00;98342.06;5064929;28;20200;-77
2022/11/19 00:35:57;;;;;;;0.50;0.50;;;;;;;11.60;100.00;98355.84;5056570;28;20193;-78
2022/11/19 00:38:24;;;;;;;0.60;0.60;;;;;;;11.55;100.00;98348.41;5049352;28;20208;-76
2022/11/19 00:40:51;;;;;;;0.57;0.57;;;;;;;11.56;100.00;98344.94;5052909;28;20207;-77
2022/11/19 00:46:03;;;;;;;0.50;0.50;;;;;;;11.56;100.00;98338.97;5067166;28;20202;-77
2022/11/19 00:48:30;;;;;;;0.60;0.60;;;;;;;11.56;100.00;98334.69;5050519;28;20204;-75
2022/11/19 00:50:57;;;;;;;0.90;0.90;;;;;;;11.59;100.00;98349.91;5059226;28;20200;-77
2022/11/19 00:53:24;;;;;;;0.40;0.40;;;;;;;11.59;100.00;98354.22;5049351;28;20193;-77
2022/11/19 00:55:51;;;;;;;0.40;0.40;;;;;;;11.57;100.00;98376.53;5065516;28;20682;-77
2022/11/19 00:58:18;;;;;;;0.50;0.50;;;;;;;11.52;100.00;98370.81;5058910;28;20204;-77
2022/11/19 01:00:45;;;;;;;0.40;0.40;;;;;;;11.49;100.00;98373.53;5056114;28;20631;-77
2022/11/19 01:03:13;;;;;;;0.50;0.50;;;;;;;11.51;100.00;98372.56;5058224;28;20688;-77
2022/11/19 01:05:40;;;;;;;0.50;0.50;;;;;;;11.51;100.00;98364.03;5051617;28;20200;-76
2022/11/19 01:08:06;;;;;;;0.50;0.50;;;;;;;11.47;100.00;98368.47;5055355;28;20201;-77
2022/11/19 01:10:34;;;;;;;0.53;0.53;;;;;;;11.45;100.00;98393.41;5060873;28;20211;-78
2022/11/19 01:15:48;;;;;;;0.57;0.57;;;;;;;11.33;100.00;98401.72;5059444;28;20253;-77
2022/11/19 01:18:16;;;;;;;0.50;0.50;;;;;;;11.31;100.00;98398.38;5050819;28;20204;-78
2022/11/19 01:20:46;;;;;;;0.40;0.40;;;;;;;11.29;100.00;98414.75;5058015;28;20210;-77
2022/11/19 01:23:13;;;;;;;0.50;0.50;;;;;;;11.27;100.00;98419.13;5059094;28;20331;-77
2022/11/19 01:25:40;;;;;;;0.50;0.50;;;;;;;11.24;100.00;98435.50;5053889;28;20627;-77
2022/11/19 01:28:07;;;;;;;0.50;0.50;;;;;;;11.30;100.00;98430.09;5053376;28;20734;-78
2022/11/19 01:30:34;;;;;;;0.77;0.77;;;;;;;11.32;100.00;98438.53;5064372;28;20684;-78
2022/11/19 01:33:01;;;;;;;0.43;0.43;;;;;;;11.39;100.00;98419.38;5062847;28;20196;-77
2022/11/19 01:35:29;;;;;;;0.50;0.50;;;;;;;11.39;100.00;98415.97;5073469;28;20208;-78
2022/11/19 01:37:56;;;;;;;0.40;0.40;;;;;;;11.42;100.00;98436.34;5064724;28;20645;-77
2022/11/19 01:40:23;;;;;;;0.70;0.70;;;;;;;11.43;100.00;98436.28;5053763;28;20256;-78
2022/11/19 01:42:50;;;;;;;0.50;0.50;;;;;;;11.38;100.00;98417.69;5051844;28;20220;-78
2022/11/19 01:45:27;;;;;;;0.60;0.60;;;;;;;11.47;100.00;98436.97;5050710;28;20232;-78
2022/11/19 01:47:56;;;;;;;0.40;0.40;;;;;;;11.43;100.00;98436.28;5052878;28;20280;-78
2022/11/19 01:50:24;;;;;;;0.50;0.50;;;;;;;11.41;100.00;98458.59;5052942;28;20254;-78
2022/11/19 01:52:52;;;;;;;0.50;0.50;;;;;;;11.38;100.00;98469.00;5052455;28;20193;-78
2022/11/19 01:55:20;;;;;;;0.40;0.40;;;;;;;11.33;100.00;98468.41;5055146;28;20203;-78
2022/11/19 01:57:54;;;;;;;0.40;0.40;;;;;;;11.24;100.00;98463.72;5073310;28;20200;-78
2022/11/19 02:00:21;;;;;;;0.40;0.40;;;;;;;11.28;100.00;98467.78;5063041;28;20196;-78
2022/11/19 02:02:48;;;;;;;0.50;0.50;;;;;;;11.24;100.00;98466.28;5050494;28;20295;-78
2022/11/19 02:05:16;;;;;;;0.50;0.50;;;;;;;11.23;100.00;98480.00;5052835;28;20561;-78
2022/11/19 02:07:48;;;;;;;0.50;0.50;;;;;;;11.14;100.00;98480.47;5052372;28;20197;-77
2022/11/19 02:10:16;;;;;;;0.53;0.53;;;;;;;11.11;100.00;98470.34;5052508;28;20569;-78
2022/11/19 02:12:51;;;;;;;0.43;0.43;;;;;;;11.08;100.00;98488.44;5052960;28;20208;-78
2022/11/19 02:15:29;;;;;;;0.50;0.50;;;;;;;10.97;100.00;98472.72;5049012;28;20209;-77
2022/11/19 02:18:18;;;;;;;1.23;1.23;;;;;;;11.08;100.00;98485.88;5054244;28;20254;-78
2022/11/19 02:20:51;;;;;;;0.73;0.73;;;;;;;11.10;100.00;98489.19;5052371;28;20207;-78
2022/11/19 02:23:57;;;;;;;0.50;0.50;;;;;;;11.10;100.00;98488.34;5050134;28;20289;-77
2022/11/19 02:26:54;;;;;;;0.47;0.47;;;;;;;11.13;100.00;98477.94;5067760;28;20192;-78
2022/11/19 02:29:49;;;;;;;0.80;0.80;;;;;;;11.15;100.00;98466.72;5052526;28;20224;-78
2022/11/19 02:32:21;;;;;;;1.40;1.33;;;;;;;11.22;100.00;98462.97;5053571;28;20197;-78
2022/11/19 02:34:54;;;;;;;0.53;0.53;;;;;;;11.23;100.00;98468.91;5060604;28;20577;-77
2022/11/19 02:37:26;;;;;;;0.40;0.40;;;;;;;11.21;100.00;98466.41;5072379;28;20203;-78
2022/11/19 02:39:57;;;;;;;0.50;0.50;;;;;;;11.33;100.00;98475.28;5060512;28;20254;-78
2022/11/19 02:42:31;;;;;;;0.60;0.60;;;;;;;11.35;100.00;98481.16;5057502;28;20221;-77
2022/11/19 02:45:03;;;;;;;0.83;0.83;;;;;;;11.31;100.00;98484.78;5051799;28;20225;-78
2022/11/19 02:47:35;;;;;;;0.50;0.50;;;;;;;11.36;100.00;98486.22;5059420;28;20572;-77
2022/11/19 02:50:07;;;;;;;0.53;0.53;;;;;;;11.41;100.00;98493.69;5072187;28;20196;-78
2022/11/19 02:52:35;;;;;;;1.07;0.97;;;;;;;11.44;100.00;98490.97;5058339;28;20266;-77
2022/11/19 02:55:02;;;;;;;0.50;0.50;;;;;;;11.47;100.00;98483.97;5052481;28;20208;-78
2022/11/19 02:57:29;;;;;;;0.63;0.63;;;;;;;11.48;100.00;98483.06;5063045;28;20306;-78
2022/11/19 03:05:36;;;;;;;0.40;0.40;;;;;;;11.56;100.00;98487.84;5018812;28;20197;-78
2022/11/19 03:08:03;;;;;;;0.80;0.80;;;;;;;11.59;100.00;98498.78;5050059;28;20197;-77
2022/11/19 03:10:54;;;;;;;0.57;0.57;;;;;;;11.60;100.00;98495.28;5051481;28;20205;-77
2022/11/19 03:19:08;;;;;;;0.43;0.43;;;;;;;11.45;100.00;98519.16;5049310;28;20196;-77
2022/11/19 03:21:39;;;;;;;0.53;0.53;;;;;;;11.51;100.00;98526.53;5053448;28;20204;-78
2022/11/19 03:24:12;;;;;;;0.50;0.50;;;;;;;11.55;100.00;98540.91;5070403;28;20212;-78
2022/11/19 03:26:44;;;;;;;0.60;0.60;;;;;;;11.60;100.00;98545.78;5068402;28;20644;-78
2022/11/19 03:29:14;;;;;;;0.53;0.53;;;;;;;11.60;100.00;98551.78;5057265;28;20196;-78
2022/11/19 03:31:47;;;;;;;0.47;0.47;;;;;;;11.58;100.00;98551.03;5063911;28;20197;-78
2022/11/19 03:34:19;;;;;;;1.20;1.20;;;;;;;11.54;100.00;98559.75;5059960;28;20585;-78
2022/11/19 03:36:49;;;;;;;0.60;0.60;;;;;;;11.53;100.00;98560.66;5050932;28;20211;-78
2022/11/19 03:39:18;;;;;;;0.70;0.70;;;;;;;11.53;100.00;98560.66;5050989;28;20223;-77
2022/11/19 03:41:47;;;;;;;0.57;0.57;;;;;;;11.47;100.00;98563.50;5050631;28;20679;-77
2022/11/19 03:44:18;;;;;;;0.53;0.53;;;;;;;11.52;100.00;98571.00;5059303;28;20704;-77
2022/11/19 03:46:51;;;;;;;0.50;0.50;;;;;;;11.41;100.00;98556.13;5051275;28;20627;-77
2022/11/19 03:49:25;;;;;;;1.13;1.13;;;;;;;11.45;100.00;98552.50;5051219;28;20258;-78
2022/11/19 03:51:56;;;;;;;0.40;0.40;;;;;;;11.47;100.00;98560.94;5047929;28;20704;-78
2022/11/19 03:54:23;;;;;;;0.40;0.40;;;;;;;11.50;100.00;98583.91;5051252;28;20201;-78
2022/11/19 03:56:51;;;;;;;1.10;1.10;;;;;;;11.52;100.00;98584.69;5052531;28;20207;-78
2022/11/19 03:59:18;;;;;;;0.50;0.50;;;;;;;11.52;100.00;98587.25;5050649;28;20201;-77
2022/11/19 04:01:48;;;;;;;0.90;0.90;;;;;;;11.55;100.00;98583.69;5061002;28;20204;-78
2022/11/19 04:07:01;;;;;;;0.60;0.60;;;;;;;11.56;100.00;98591.34;5052728;28;20335;-78
2022/11/19 04:09:27;;;;;;;0.50;0.50;;;;;;;11.58;100.00;98579.25;5051648;28;20205;-77
2022/11/19 04:11:54;;;;;;;0.40;0.40;;;;;;;11.56;100.00;98581.06;5048560;28;20212;-77
2022/11/19 04:14:21;;;;;;;0.50;0.50;;;;;;;11.47;100.00;98567.84;5049697;28;20208;-76
2022/11/19 04:16:48;;;;;;;0.63;0.63;;;;;;;11.40;100.00;98569.88;5050910;28;20205;-77
2022/11/19 04:19:16;;;;;;;0.57;0.57;;;;;;;11.34;100.00;98600.09;5050545;28;20219;-77
2022/11/19 04:21:43;;;;;;;0.40;0.40;;;;;;;11.38;100.00;98617.84;5049998;28;20204;-78
2022/11/19 04:24:11;;;;;;;0.50;0.50;;;;;;;11.22;100.00;98627.13;5050341;28;20217;-75
2022/11/19 04:26:38;;;;;;;0.53;0.53;;;;;;;11.00;100.00;98621.31;5050485;28;20208;-77
2022/11/19 04:29:05;;;;;;;0.63;0.63;;;;;;;11.04;100.00;98622.84;5057847;28;20197;-75
2022/11/19 04:31:32;;;;;;;0.73;0.73;;;;;;;10.80;100.00;98605.94;5050056;28;20204;-77
2022/11/19 04:33:58;;;;;;;1.17;1.17;;;;;;;10.95;100.00;98643.75;5053719;28;20667;-78
2022/11/19 04:36:25;;;;;;;0.83;0.83;;;;;;;10.90;100.00;98636.25;5054517;28;20224;-77
2022/11/19 04:38:52;;;;;;;0.93;0.93;;;;;;;10.80;100.00;98645.25;5055083;28;20200;-77
2022/11/19 04:41:20;;;;;;;0.57;0.57;;;;;;;10.66;100.00;98633.94;5070386;28;20200;-76
2022/11/19 04:43:47;;;;;;;1.50;1.13;;;;;;;10.71;100.00;98655.06;5061078;28;20231;-77
2022/11/19 04:46:14;;;;;;;0.60;0.60;;;;;;;10.60;100.00;98647.00;5074451;28;20701;-77
2022/11/19 04:48:41;;;;;;;0.30;0.30;;;;;;;10.47;100.00;98655.19;5062396;28;20192;-74
2022/11/19 04:51:07;;;;;;;0.60;0.60;;;;;;;10.34;100.00;98648.91;5073323;28;20253;-76
2022/11/19 04:53:34;;;;;;;0.80;0.80;;;;;;;10.29;100.00;98658.50;5052066;28;20684;-77
2022/11/19 04:56:01;;;;;;;0.50;0.50;;;;;;;10.30;100.00;98665.31;5074269;28;20734;-77
2022/11/19 04:58:29;;;;;;;0.90;0.90;;;;;;;10.39;100.00;98669.22;5066503;28;20291;-78
2022/11/19 05:00:56;;;;;;;0.87;0.87;;;;;;;10.40;100.00;98676.03;5053759;28;20203;-77
2022/11/19 05:03:23;;;;;;;2.57;1.13;;;;;;;10.37;100.00;98668.47;5060449;28;20280;-77
2022/11/19 05:05:50;;;;;;;1.23;0.73;;;;;;;10.22;100.00;98664.78;5058565;28;20204;-77
2022/11/19 05:08:16;;;;;;;0.47;0.47;;;;;;;10.23;100.00;98674.13;5050448;28;20209;-77
2022/11/19 05:10:44;;;;;;;0.50;0.50;;;;;;;10.24;100.00;98685.22;5057897;28;20200;-77
2022/11/19 05:13:11;;;;;;;0.40;0.40;;;;;;;10.30;100.00;98700.34;5062064;28;20672;-77
2022/11/19 05:15:39;;;;;;;0.80;0.80;;;;;;;10.34;100.00;98702.69;5054206;28;20572;-77
2022/11/19 05:18:06;;;;;;;0.60;0.60;;;;;;;10.31;100.00;98707.09;5048320;28;20205;-76
2022/11/19 05:20:33;;;;;;;0.50;0.50;;;;;;;10.24;100.00;98703.16;5043333;28;20213;-77
2022/11/19 05:23:00;;;;;;;0.43;0.43;;;;;;;10.24;100.00;98705.72;5051212;28;20220;-77
2022/11/19 05:25:27;;;;;;;0.50;0.50;;;;;;;10.25;100.00;98703.06;5056729;28;20683;-77
2022/11/19 05:27:53;;;;;;;0.50;0.50;;;;;;;10.25;100.00;98710.75;5066487;28;20200;-77
2022/11/19 05:30:20;;;;;;;0.80;0.80;;;;;;;10.30;100.00;98720.84;5056673;28;20216;-77
2022/11/19 05:32:49;;;;;;;0.70;0.70;;;;;;;10.29;100.00;98725.13;5054690;28;20233;-77
2022/11/19 05:35:15;;;;;;;0.47;0.47;;;;;;;10.24;100.00;98729.56;5061777;28;20247;-77
2022/11/19 05:37:42;;;;;;;0.60;0.60;;;;;;;10.23;100.00;98745.84;5061847;28;20217;-77
2022/11/19 05:40:10;;;;;;;0.30;0.30;;;;;;;10.18;100.00;98740.06;5053429;28;20692;-77
2022/11/19 05:42:37;;;;;;;0.40;0.40;;;;;;;10.05;100.00;98736.28;5054970;28;20593;-77
2022/11/19 05:45:04;;;;;;;0.60;0.60;;;;;;;9.96;100.00;98762.22;5052068;28;20225;-77
2022/11/19 05:47:31;;;;;;;0.80;0.80;;;;;;;9.92;100.00;98770.91;5061458;28;20202;-77
2022/11/19 05:49:59;;;;;;;0.67;0.67;;;;;;;9.87;100.00;98763.44;5069534;28;20212;-78
2022/11/19 05:52:26;;;;;;;1.50;1.40;;;;;;;9.91;100.00;98764.16;5052187;28;20206;-77
2022/11/19 05:54:53;;;;;;;0.50;0.50;;;;;;;10.02;100.00;98767.13;5055875;28;20259;-77
2022/11/19 05:57:20;;;;;;;0.50;0.50;;;;;;;10.10;100.00;98782.22;5049997;28;20204;-78
2022/11/19 05:59:46;;;;;;;0.50;0.50;;;;;;;10.13;100.00;98775.25;5048976;28;20216;-77
2022/11/19 06:02:13;;;;;;;0.40;0.40;;;;;;;10.13;100.00;98789.78;5064314;28;20196;-78
2022/11/19 06:04:40;;;;;;;0.40;0.40;;;;;;;10.22;100.00;98804.81;5050749;28;20711;-77
2022/11/19 06:07:08;;;;;;;0.70;0.70;;;;;;;10.31;100.00;98810.41;5050227;28;20258;-78
2022/11/19 06:09:35;;;;;;;0.50;0.50;;;;;;;10.39;100.00;98803.28;5052968;28;20205;-77
2022/11/19 06:12:02;;;;;;;0.60;0.60;;;;;;;10.45;100.00;98812.44;5052849;28;20213;-78
2022/11/19 06:14:29;;;;;;;0.70;0.70;;;;;;;10.49;100.00;98814.84;5050444;28;20572;-78
2022/11/19 06:16:57;;;;;;;0.53;0.53;;;;;;;10.45;100.00;98813.28;5064912;28;20660;-77
2022/11/19 06:19:25;;;;;;;0.47;0.47;;;;;;;10.54;100.00;98812.94;5053117;28;20228;-78
2022/11/19 06:21:52;;;;;;;0.40;0.40;;;;;;;10.53;100.00;98800.19;5052336;28;20209;-77
2022/11/19 06:24:21;;;;;;;0.77;0.77;;;;;;;10.61;100.00;98802.44;5059649;28;20701;-77
2022/11/19 06:26:48;;;;;;;3.43;0.83;;;;;;;10.52;100.00;98803.63;5051727;28;20208;-77
2022/11/19 06:29:15;;;;;;;0.60;0.60;;;;;;;10.46;100.00;98814.13;5065356;28;20203;-78
2022/11/19 06:31:42;;;;;;;1.33;1.33;;;;;;;10.42;100.00;98828.78;5069248;28;20682;-77
2022/11/19 06:34:10;;;;;;;0.60;0.60;;;;;;;10.52;100.00;98848.03;5065554;28;20203;-78
2022/11/19 06:36:36;;;;;;;0.87;0.87;;;;;;;10.60;100.00;98847.72;5055561;28;20227;-78
2022/11/19 06:39:04;;;;;;;0.60;0.60;;;;;;;10.62;100.00;98850.25;5058778;28;20258;-77
2022/11/19 06:41:32;;;;;;;0.50;0.50;;;;;;;10.53;100.00;98836.88;5057850;28;20259;-78
2022/11/19 06:43:59;;;;;;;0.50;0.50;;;;;;;10.60;100.00;98849.47;5053945;28;20239;-78
2022/11/19 06:46:25;;;;;;;0.70;0.70;;;;;;;10.62;100.00;98845.13;5066780;28;20204;-78
2022/11/19 06:48:53;;;;;;;0.83;0.83;;;;;;;10.57;100.00;98847.00;5055021;28;20207;-77
2022/11/19 06:51:19;;;;;;;0.50;0.50;;;;;;;10.57;100.00;98852.13;5059446;28;20259;-77
2022/11/19 06:53:46;;;;;;;0.57;0.57;;;;;;;10.66;100.00;98856.94;5055068;28;20204;-78
2022/11/19 06:56:13;;;;;;;0.40;0.40;;;;;;;10.66;100.00;98862.06;5052143;28;20197;-78
2022/11/19 06:58:41;;;;;;;1.37;1.37;;;;;;;10.71;100.00;98872.94;5054200;28;20204;-78
2022/11/19 07:01:08;;;;;;;1.20;1.20;;;;;;;10.73;100.00;98868.59;5049142;28;20209;-78
2022/11/19 07:03:34;;;;;;;0.77;0.77;;;;;;;10.74;100.00;98860.00;5047570;28;20216;-78
2022/11/19 07:06:04;;;;;;;0.50;0.50;;;;;;;10.83;100.00;98870.72;5048326;28;20295;-77
2022/11/19 07:08:33;;;;;;;0.37;0.37;;;;;;;10.83;100.00;98870.72;5067438;28;20596;-78
2022/11/19 07:11:00;;;;;;;0.93;0.90;;;;;;;10.79;100.00;98873.50;5058169;28;20682;-77
2022/11/19 07:13:56;;;;;;;0.63;0.63;;;;;;;10.79;100.00;98864.06;5050192;28;20677;-78
2022/11/19 07:16:17;;;;;;;0.50;0.50;;;;;;;10.86;100.00;98872.34;5056559;28;20208;-77
2022/11/19 07:18:44;;;;;;;0.73;0.73;;;;;;;10.94;100.00;98878.84;5068102;28;20200;-78
2022/11/19 07:21:11;;;;;;;0.50;0.50;;;;;;;10.96;100.00;98871.91;5051175;28;20212;-77
2022/11/19 07:23:38;;;;;;;0.30;0.30;;;;;;;11.09;100.00;98867.13;5051531;28;20286;-78
2022/11/19 07:26:05;;;;;;;0.50;0.50;;;;;;;11.18;100.00;98866.75;5051614;28;20204;-78
2022/11/19 07:28:33;;;;;;;0.50;0.50;;;;;;;11.30;100.00;98876.53;5048607;28;20200;-78
2022/11/19 07:31:04;;;;;;;0.40;0.40;;;;;;;11.44;100.00;98871.63;5049031;28;20212;-75
2022/11/19 07:33:32;;;;;;;0.50;0.50;;;;;;;11.47;100.00;98857.84;5048333;28;20197;-75
2022/11/19 07:35:59;;;;;;;0.93;0.93;;;;;;;11.77;100.00;98871.97;5047330;28;20197;-75
2022/11/19 07:38:26;;;;;;;0.50;0.50;;;;;;;11.97;100.00;98879.63;5042865;28;20236;-75
2022/11/19 07:40:53;;;;;;;0.50;0.50;;;;;;;12.16;100.00;98884.78;5049576;28;20204;-75
2022/11/19 07:43:19;;;;;;;0.40;0.40;;;;;;;12.38;100.00;98889.78;5048930;28;20224;-73
2022/11/19 07:45:48;;;;;;;0.53;0.53;;;;;;;12.59;100.00;98896.53;5060960;28;20228;-75
2022/11/19 07:48:14;;;;;;;0.50;0.50;;;;;;;12.80;100.00;98902.41;5049313;28;20223;-75
2022/11/19 07:50:43;;;;;;;0.50;0.50;;;;;;;12.93;100.00;98898.34;5045542;28;20208;-76
2022/11/19 07:53:10;;;;;;;0.50;0.50;;;;;;;13.15;100.00;98888.72;5042318;28;20209;-76
2022/11/19 07:55:36;;;;;;;0.90;0.90;;;;;;;13.34;100.00;98888.66;5048427;28;20262;-75
2022/11/19 07:58:03;;;;;;;1.33;1.10;;;;;;;13.51;100.00;98893.78;5047666;28;20750;-75
2022/11/19 08:00:30;;;;;;;0.67;0.67;;;;;;;13.67;100.00;98908.41;5049881;28;20593;-77
2022/11/19 08:02:57;;;;;;;0.50;0.50;;;;;;;13.87;100.00;98914.28;5044901;28;20719;-76
2022/11/19 08:05:24;;;;;;;0.47;0.47;;;;;;;14.02;100.00;98916.91;5036281;28;20288;-77
2022/11/19 08:07:52;;;;;;;0.50;0.50;;;;;;;14.20;100.00;98922.84;5054287;28;20459;-67
2022/11/19 08:10:19;;;;;;;0.43;0.43;;;;;;;14.31;100.00;98927.47;5043248;28;20228;-67
2022/11/19 08:13:01;;;;;;;0.70;0.70;;;;;;;14.45;100.00;98927.56;5057981;28;20216;-67
2022/11/19 08:15:28;;;;;;;0.53;0.53;;;;;;;14.62;100.00;98925.75;5070072;28;20200;-67
2022/11/19 08:18:12;;;;;;;2.00;2.00;;;;;;;14.62;100.00;98922.34;5064690;28;20203;-67
2022/11/19 08:20:40;;;;;;;0.70;0.70;;;;;;;14.79;100.00;98931.75;5060685;28;20204;-67
2022/11/19 08:23:08;;;;;;;0.37;0.37;;;;;;;14.88;100.00;98937.25;5057331;28;20211;-67
2022/11/19 08:25:35;;;;;;;0.57;0.57;;;;;;;14.94;100.00;98925.75;5063000;28;20288;-67
2022/11/19 08:28:03;;;;;;;0.40;0.40;;;;;;;15.02;100.00;98939.06;5066188;28;21555;-67
2022/11/19 08:30:30;;;;;;;0.60;0.60;;;;;;;15.10;100.00;98931.72;5056721;28;20671;-67
2022/11/19 08:32:57;;;;;;;1.03;1.03;;;;;;;15.28;100.00;98941.03;5058549;28;20197;-67
2022/11/19 08:35:24;;;;;;;0.40;0.40;;;;;;;15.31;100.00;98946.03;5063233;28;20192;-67
2022/11/19 08:37:51;;;;;;;0.50;0.50;;;;;;;15.50;100.00;98962.19;5058216;28;20196;-67
2022/11/19 08:40:19;;;;;;;0.50;0.50;;;;;;;15.65;100.00;98956.13;5059843;28;20284;-67
2022/11/19 08:43:00;;;;;;;0.80;0.80;;;;;;;15.66;100.00;98957.78;5053980;28;20251;-67
2022/11/19 08:45:29;;;;;;;0.60;0.60;;;;;;;15.79;100.00;98972.59;5052780;28;20231;-67
2022/11/19 08:47:57;;;;;;;0.50;0.50;;;;;;;16.01;100.00;98973.81;5058922;28;20206;-67
2022/11/19 08:50:24;;;;;;;0.50;0.50;;;;;;;16.15;100.00;98970.44;5061148;28;20270;-67
2022/11/19 08:53:00;;;;;;;0.40;0.40;;;;;;;16.32;100.00;98967.63;5057785;28;20200;-67
2022/11/19 08:55:29;;;;;;;0.50;0.50;;;;;;;16.41;100.00;98971.44;5062700;28;20682;-67
2022/11/19 08:58:01;;;;;;;0.50;0.50;;;;;;;16.56;100.00;98971.38;5050312;28;20205;-67
2022/11/19 09:00:28;;;;;;;0.83;0.83;;;;;;;16.80;100.00;98980.19;5058993;28;20207;-67
2022/11/19 09:02:55;;;;;;;0.60;0.60;;;;;;;16.89;100.00;98977.97;5058185;28;20588;-67
2022/11/19 09:05:22;;;;;;;0.83;0.83;;;;;;;16.97;100.00;98978.31;5064068;28;20216;-67
2022/11/19 09:07:48;;;;;;;0.73;0.73;;;;;;;16.89;100.00;98967.63;5058824;28;20192;-67
2022/11/19 09:10:16;;;;;;;0.50;0.50;;;;;;;17.00;100.00;98965.16;5060513;28;20279;-67
2022/11/19 09:12:44;;;;;;;0.40;0.40;;;;;;;17.06;100.00;98970.00;5060946;28;20203;-67
2022/11/19 09:15:11;;;;;;;0.50;0.50;;;;;;;17.12;100.00;98964.41;5061037;28;20193;-67
2022/11/19 09:17:38;;;;;;;0.63;0.63;;;;;;;17.13;100.00;98966.06;5057719;28;20673;-67
2022/11/19 09:20:06;;;;;;;0.33;0.33;;;;;;;17.18;100.00;98956.25;5065548;28;20257;-67
2022/11/19 09:22:33;;;;;;;0.53;0.53;;;;;;;17.12;100.00;98943.69;5058413;28;20208;-67
2022/11/19 09:25:00;;;;;;;0.70;0.70;;;;;;;17.23;100.00;98952.44;5066545;28;20216;-67
2022/11/19 09:27:27;;;;;;;0.70;0.70;;;;;;;17.26;100.00;98951.41;5064247;28;20200;-67
2022/11/19 09:29:55;;;;;;;0.80;0.80;;;;;;;17.21;100.00;98948.28;5062437;28;20200;-67
2022/11/19 09:32:22;;;;;;;0.57;0.57;;;;;;;17.06;100.00;98933.72;5067097;28;20653;-67
2022/11/19 09:34:49;;;;;;;0.57;0.57;;;;;;;17.10;100.00;98945.53;5060597;28;20204;-67
2022/11/19 09:37:15;;;;;;;0.50;0.50;;;;;;;17.08;100.00;98937.88;5066877;28;20193;-67
2022/11/19 09:39:42;;;;;;;0.43;0.43;;;;;;;17.08;100.00;98939.63;5063072;28;20688;-67
2022/11/19 09:42:15;;;;;;;0.70;0.70;;;;;;;17.12;100.00;98933.34;5057465;28;20614;-67
2022/11/19 09:45:02;;;;;;;0.83;0.83;;;;;;;17.18;100.00;98935.53;5065102;28;20262;-67
2022/11/19 09:47:40;;;;;;;0.50;0.50;;;;;;;17.22;100.00;98929.22;5066164;28;20206;-67
2022/11/19 09:50:16;;;;;;;0.57;0.57;;;;;;;17.23;100.00;98917.91;5069046;28;20199;-67
2022/11/19 09:52:47;;;;;;;2.50;0.67;;;;;;;17.33;100.00;98937.13;5060118;28;20195;-67
2022/11/19 09:55:19;;;;;;;0.50;0.50;;;;;;;17.51;100.00;98930.72;5061873;28;20211;-67
2022/11/19 09:57:50;;;;;;;0.67;0.67;;;;;;;17.57;100.00;98919.19;5060813;28;20233;-67
2022/11/19 10:00:22;;;;;;;0.50;0.50;;;;;;;17.56;100.00;98923.53;5061508;28;20193;-67
2022/11/19 10:02:49;;;;;;;0.60;0.60;;;;;;;17.64;100.00;98908.28;5062732;28;20731;-67
2022/11/19 10:05:24;;;;;;;0.70;0.70;;;;;;;17.64;100.00;98902.28;5059082;28;20216;-67
2022/11/19 10:07:59;;;;;;;0.60;0.60;;;;;;;17.66;100.00;98903.84;5065225;28;20196;-67
2022/11/19 10:10:39;;;;;;;2.13;2.03;;;;;;;17.71;100.00;98912.13;5061664;28;20256;-67
2022/11/19 10:13:25;;;;;;;0.63;0.63;;;;;;;17.69;100.00;98914.00;5053441;28;20200;-67
2022/11/19 10:16:03;;;;;;;0.70;0.70;;;;;;;17.54;100.00;98889.09;5064838;28;20587;-67
2022/11/19 10:18:40;;;;;;;0.50;0.50;;;;;;;17.70;100.00;98901.88;5058885;28;20254;-67
2022/11/19 10:21:13;;;;;;;0.40;0.40;;;;;;;17.85;100.00;98903.44;5059962;28;20604;-67
2022/11/19 10:23:49;;;;;;;0.67;0.67;;;;;;;17.98;100.00;98912.03;5058558;28;20200;-67
2022/11/19 10:26:18;;;;;;;0.60;0.60;;;;;;;17.94;100.00;98918.38;5057065;28;20207;-67
2022/11/19 10:28:52;;;;;;;0.50;0.50;;;;;;;17.98;100.00;98908.63;5059457;28;20196;-67
2022/11/19 10:31:29;;;;;;;0.70;0.70;;;;;;;17.98;100.00;98913.78;5060940;28;20220;-67
2022/11/19 10:34:02;;;;;;;0.40;0.40;;;;;;;17.82;100.00;98912.25;5063577;28;20258;-67
2022/11/19 10:36:34;;;;;;;0.50;0.50;;;;;;;17.88;100.00;98907.56;5059900;28;20284;-67
2022/11/19 10:39:06;;;;;;;0.83;0.83;;;;;;;17.88;100.00;98892.00;5061733;28;20253;-67
2022/11/19 10:41:37;;;;;;;0.93;0.93;;;;;;;17.91;100.00;98907.38;5059559;28;20201;-67
2022/11/19 10:44:36;;;;;;;0.60;0.60;;;;;;;17.94;100.00;98912.34;5062151;28;20236;-67
2022/11/19 10:47:05;;;;;;;0.40;0.40;;;;;;;17.99;100.00;98905.09;5063304;28;20290;-67
2022/11/19 10:49:37;;;;;;;1.23;1.23;;;;;;;17.98;100.00;98899.06;5068131;28;20254;-67
2022/11/19 10:52:05;;;;;;;0.47;0.47;;;;;;;17.97;100.00;98907.78;5061273;28;20665;-67
2022/11/19 10:54:33;;;;;;;0.50;0.50;;;;;;;18.04;100.00;98903.84;5054484;28;20212;-67
2022/11/19 10:57:00;;;;;;;0.70;0.70;;;;;;;18.18;100.00;98905.50;5055373;28;20193;-67
2022/11/19 10:59:31;;;;;;;0.80;0.80;;;;;;;18.20;100.00;98893.22;5063353;28;20200;-67
2022/11/19 11:02:02;;;;;;;0.50;0.50;;;;;;;18.28;100.00;98885.75;5062251;28;20575;-67
2022/11/19 11:04:30;;;;;;;0.40;0.40;;;;;;;18.35;100.00;98887.00;5063640;28;20262;-67
2022/11/19 11:06:59;;;;;;;0.50;0.50;;;;;;;18.38;100.00;98894.56;5059860;28;20262;-67
2022/11/19 11:09:31;;;;;;;0.73;0.73;;;;;;;18.44;100.00;98891.53;5061572;28;20196;-67
2022/11/19 11:14:53;;;;;;;1.03;1.03;;;;;;;18.36;100.00;98883.44;5051981;28;20203;-67
2022/11/19 11:17:24;;;;;;;0.63;0.63;;;;;;;18.38;100.00;98881.59;5062614;28;20196;-67
2022/11/19 11:20:03;;;;;;;0.53;0.53;;;;;;;18.42;100.00;98882.22;5059776;28;20253;-67
2022/11/19 11:22:31;;;;;;;0.60;0.60;;;;;;;18.47;100.00;98891.31;5062538;28;20207;-67
2022/11/19 11:24:59;;;;;;;0.40;0.40;;;;;;;18.45;100.00;98882.78;5067522;28;20224;-67
2022/11/19 11:27:32;;;;;;;1.33;1.33;;;;;;;18.49;100.00;98889.44;5057278;28;20235;-67
2022/11/19 11:30:14;;;;;;;0.40;0.40;;;;;;;18.48;100.00;98882.56;5062017;28;20197;-67
2022/11/19 11:32:42;;;;;;;0.73;0.73;;;;;;;18.54;99.84;98887.41;5064520;28;20196;-67
2022/11/19 11:35:29;;;;;;;0.97;0.97;;;;;;;18.58;99.62;98893.19;5057029;28;20561;-67
2022/11/19 11:37:57;;;;;;;0.40;0.40;;;;;;;18.65;97.97;98884.00;5044899;28;20434;-67
2022/11/19 11:40:24;;;;;;;0.60;0.60;;;;;;;18.85;98.82;98871.28;5044019;28;20584;-67
2022/11/19 11:42:52;;;;;;;0.53;0.53;;;;;;;19.12;99.99;98880.59;5048815;28;20200;-68
2022/11/19 11:45:24;;;;;;;0.60;0.60;;;;;;;19.26;99.88;98877.81;5060520;28;20224;-66
2022/11/19 11:47:51;;;;;;;0.40;0.40;;;;;;;19.38;97.78;98889.91;5057113;28;20214;-66
2022/11/19 11:50:24;;;;;;;0.50;0.50;;;;;;;19.48;96.28;98895.28;5052020;28;20888;-66
2022/11/19 11:52:53;;;;;;;1.53;0.93;;;;;;;19.55;96.43;98891.28;5044670;28;20197;-66
2022/11/19 11:55:31;;;;;;;0.50;0.50;;;;;;;19.56;95.35;98880.75;5048979;28;20198;-67
2022/11/19 11:57:59;;;;;;;0.77;0.77;;;;;;;19.63;94.92;98894.97;5059479;28;20197;-67
2022/11/19 12:00:32;;;;;;;0.40;0.40;;;;;;;19.51;93.40;98879.47;5063499;28;20240;-67